Latest Weather Observations for Red Rocks Point

IDW60801

Issued at 1:35 pm WST Friday 1 August 2014 (issued every 30 minutes, with the page automatically refreshed every 10 minutes)

About weather observations | Map of weather stations | Latest weather observations for WA | Other Formats
Station Details ID: 011053 Name: RED ROCKS POINT Lat: -32.20 Lon: 127.53 Height: 3.1 m
Data from the previous 72 hours. | See also: Recent months for locations in Western Australia
Date/Time
WST
Temp
°C
App
Temp
°C
Dew
Point
Rel
Hum
%
Delta-T
°C
Wind Press
QNH
hPa
Press
MSL
hPa
Rain
since 9 am
mm
Dir
 
Spd
km/h
Gust
km/h
Spd
kts
Gust
kts
01/01:30pm 14.6 10.0 5.7 55 4.2 S 19 24 10 13 1028.5 - 0.0
01/01:00pm 15.3 11.0 5.2 51 4.7 SSW 17 20 9 11 1028.3 - 0.0
01/12:30pm 15.6 11.5 6.1 53 4.6 S 17 22 9 12 1028.5 - 0.0
01/12:00pm 14.9 10.8 6.0 55 4.2 S 17 24 9 13 1028.6 1028.6 0.0
01/11:30am 15.4 11.6 5.9 53 4.6 S 15 20 8 11 1029.0 - 0.0
01/11:00am 14.2 10.7 5.6 56 4.1 S 13 20 7 11 1029.3 - 0.0
01/10:30am 13.3 9.1 5.9 61 3.5 SSE 17 22 9 12 1029.4 - 0.0
01/10:00am 14.2 10.4 3.9 50 4.7 S 13 17 7 9 1029.3 - 0.0
01/09:30am 13.5 9.4 4.1 53 4.3 S 15 24 8 13 1029.2 - 0.0
01/09:00am 13.2 9.3 5.4 59 3.6 S 15 20 8 11 1028.8 1028.8 0.4
01/08:30am 12.7 8.0 6.1 64 3.1 S 20 24 11 13 1028.5 - 0.4
01/08:00am 12.4 9.6 6.9 69 2.6 WSW 11 17 6 9 1028.1 - 0.4
01/07:30am 11.3 8.9 7.0 75 2.0 WSW 9 13 5 7 1027.7 - 0.4
01/07:00am 11.1 6.6 6.3 72 2.2 S 19 24 10 13 1027.4 - 0.4
01/06:30am 11.5 4.9 7.8 78 1.8 S 32 43 17 23 1027.1 - 0.4
01/06:00am 11.4 7.0 7.3 76 2.0 S 20 33 11 18 1026.7 1026.7 0.4
01/05:30am 11.9 7.0 7.0 72 2.3 SSW 22 33 12 18 1026.3 - 0.2
01/05:00am 12.1 5.7 5.3 63 3.1 S 28 39 15 21 1026.0 - 0.2
01/04:30am 11.7 8.2 7.0 73 2.2 WSW 15 24 8 13 1025.9 - 0.2
01/04:00am 11.9 5.4 4.9 62 3.2 SSW 28 35 15 19 1025.6 - 0.2
01/03:30am 11.9 6.0 5.8 66 2.8 SSW 26 37 14 20 1025.5 - 0.2
01/03:00am 12.2 6.7 5.8 65 3.0 SSW 24 33 13 18 1025.4 1025.4 0.2
01/02:30am 11.0 7.4 6.7 75 2.0 WSW 15 28 8 15 1025.6 - 0.2
01/02:09am 12.2 5.4 7.1 71 2.5 SSW 32 50 17 27 1025.5 - 0.2
01/02:00am 11.9 4.8 6.2 68 2.7 S 33 44 18 24 1025.3 - 0.2
01/01:30am 11.7 5.8 5.8 67 2.7 SSW 26 39 14 21 1025.3 - 0.2
01/01:00am 10.5 5.5 7.9 84 1.3 SW 24 33 13 18 1025.4 - 0.2
01/12:30am 11.6 5.9 8.3 80 1.6 SW 28 43 15 23 1025.6 - 0.2
01/12:00am 12.3 5.0 7.4 72 2.4 SSW 35 56 19 30 1025.2 1025.2 0.2
 
Date/Time
WST
Temp
°C
App
Temp
°C
Dew
Point
Rel
Hum
%
Delta-T
°C
Wind Press
QNH
hPa
Press
MSL
hPa
Rain
since 9 am
mm
Dir
 
Spd
km/h
Gust
km/h
Spd
kts
Gust
kts
31/11:56pm 12.6 5.6 6.2 65 3.0 SSW 32 56 17 30 1025.0 - 0.2
31/11:30pm 12.4 5.9 6.5 67 2.8 SSW 30 39 16 21 1024.9 - 0.2
31/11:00pm 12.4 6.5 7.3 71 2.5 SW 28 43 15 23 1025.1 - 0.2
31/10:32pm 12.1 6.1 7.2 72 2.4 SW 28 46 15 25 1024.9 - 0.2
31/10:30pm 11.9 6.7 7.2 73 2.3 SW 24 39 13 21 1024.9 - 0.2
31/10:00pm 10.7 5.2 7.4 80 1.6 SW 26 48 14 26 1025.1 - 0.0
31/09:40pm 12.4 6.3 6.7 68 2.7 SW 28 46 15 25 1025.1 - 0.0
31/09:30pm 12.7 6.0 5.8 63 3.2 SW 30 43 16 23 1025.0 - 0.0
31/09:12pm 12.3 6.3 7.0 70 2.5 SW 28 48 15 26 1024.9 - 0.0
31/09:00pm 12.2 5.5 7.3 72 2.4 WSW 32 46 17 25 1024.9 1024.9 0.0
31/08:30pm 13.0 6.1 4.4 56 3.9 SW 30 46 16 25 1024.5 - 0.0
31/08:24pm 12.8 6.4 5.2 60 3.5 SW 28 48 15 26 1024.4 - 0.0
31/08:00pm 12.7 5.9 6.7 67 2.9 SW 32 43 17 23 1024.4 - 0.0
31/07:30pm 12.7 6.2 6.5 66 3.0 SW 30 50 16 27 1024.2 - 0.0
31/07:00pm 12.3 5.1 6.1 66 2.9 SW 33 52 18 28 1024.0 - 0.0
31/06:30pm 12.3 4.7 5.9 65 3.0 SW 35 57 19 31 1023.8 - 0.0
31/06:22pm 12.8 6.3 6.4 65 3.0 SW 30 57 16 31 1023.7 - 0.0
31/06:00pm 12.7 6.9 6.1 64 3.1 SW 26 35 14 19 1023.2 1023.2 0.0
31/05:30pm 12.3 7.0 7.0 70 2.5 SW 24 37 13 20 1022.9 - 0.0
31/05:00pm 11.9 6.0 7.4 74 2.2 SW 28 46 15 25 1022.8 - 0.0
31/04:30pm 12.4 5.6 7.1 70 2.6 SW 32 54 17 29 1022.3 - 0.0
31/04:28pm 12.5 6.4 6.8 68 2.7 SW 28 46 15 25 1022.2 - 0.0
31/04:00pm 13.0 7.1 5.9 62 3.3 SW 26 41 14 22 1021.8 - 0.0
31/03:30pm 13.2 6.1 5.6 60 3.6 SW 32 44 17 24 1021.7 - 0.0
31/03:00pm 13.3 6.6 5.7 60 3.6 SW 30 41 16 22 1021.5 1021.5 0.0
31/02:30pm 13.5 7.8 6.8 64 3.2 SW 26 35 14 19 1021.2 - 0.0
31/02:00pm 13.7 7.2 6.3 61 3.5 SW 30 43 16 23 1020.9 - 0.0
31/01:30pm 13.4 6.5 6.5 63 3.3 SW 32 46 17 25 1020.8 - 0.0
31/01:03pm 13.8 7.0 7.1 64 3.3 SW 32 50 17 27 1020.4 - 0.0
31/01:00pm 13.8 6.8 6.7 62 3.4 SW 33 50 18 27 1020.4 - 0.0
31/12:31pm 14.5 7.7 6.8 60 3.7 SW 32 52 17 28 1019.9 - 0.0
31/12:30pm 14.5 7.7 6.8 60 3.7 SW 32 48 17 26 1019.9 - 0.0
31/12:01pm 13.8 6.4 6.7 62 3.4 SW 35 56 19 30 1019.9 - 0.0
31/12:00pm 13.9 6.6 7.0 63 3.3 SW 35 52 19 28 1019.9 1019.9 0.0
31/11:30am 14.8 8.0 7.6 62 3.6 SW 33 54 18 29 1019.7 - 0.0
31/11:00am 14.8 7.6 7.8 63 3.5 SW 35 54 19 29 1019.5 - 0.0
31/10:30am 15.0 8.3 9.6 70 2.8 SW 35 54 19 29 1019.5 - 0.0
31/10:12am 15.1 8.3 9.2 68 3.0 SW 35 54 19 29 1019.4 - 0.0
31/10:00am 15.0 9.0 10.2 73 2.5 SW 32 44 17 24 1019.4 - 0.0
31/09:34am 14.4 9.1 9.8 74 2.4 WSW 28 52 15 28 1019.1 - 0.0
31/09:30am 15.3 10.6 10.5 73 2.5 WSW 26 39 14 21 1018.9 - 0.0
31/09:01am 15.5 9.1 9.4 67 3.1 WSW 33 72 18 39 1018.6 - 0.0
31/09:00am 15.6 9.2 9.3 66 3.2 WSW 33 48 18 26 1018.5 1018.5 0.4
31/08:38am 15.0 8.3 8.0 63 3.5 WSW 33 56 18 30 1017.8 - 0.4
31/08:30am 14.8 8.2 8.5 66 3.2 WSW 33 48 18 26 1017.7 - 0.4
31/08:10am 14.4 8.9 10.6 78 2.0 WSW 30 48 16 26 1017.4 - 0.4
31/08:00am 13.6 7.9 11.1 85 1.3 WSW 32 46 17 25 1017.2 - 0.4
31/07:38am 12.8 7.9 11.4 91 0.7 WSW 28 46 15 25 1017.2 - 0.4
31/07:30am 13.1 8.7 11.8 92 0.7 WSW 26 35 14 19 1016.8 - 0.4
31/07:00am 11.7 8.5 10.1 90 0.8 WNW 17 24 9 13 1016.5 - 0.4
31/06:30am 12.4 8.2 8.3 76 2.0 W 20 35 11 19 1016.1 - 0.0
31/06:00am 12.2 8.0 7.5 73 2.3 WNW 19 33 10 18 1015.3 1015.3 0.0
31/05:30am 12.0 7.7 7.1 72 2.4 WNW 19 30 10 16 1014.8 - 0.0
31/05:00am 11.8 7.3 6.9 72 2.3 WNW 20 33 11 18 1014.6 - 0.0
31/04:30am 11.3 6.9 6.6 73 2.2 WNW 19 32 10 17 1014.1 - 0.0
31/04:00am 10.5 6.0 6.3 75 2.0 WNW 19 28 10 15 1014.0 - 0.0
31/03:30am 9.2 5.0 5.9 80 1.5 WNW 17 24 9 13 1013.9 - 0.0
31/03:00am 8.6 4.7 5.4 80 1.4 NW 15 22 8 12 1013.9 1013.9 0.0
31/02:30am 8.9 4.7 5.6 80 1.5 NW 17 24 9 13 1014.1 - 0.0
31/02:00am 8.9 5.1 5.6 80 1.5 NW 15 20 8 11 1014.1 - 0.0
31/01:30am 8.8 4.6 5.5 80 1.5 NW 17 24 9 13 1014.3 - 0.0
31/01:00am 8.2 3.6 5.5 83 1.2 NW 19 24 10 13 1014.4 - 0.0
31/12:30am 8.2 4.1 6.2 87 0.9 NW 17 20 9 11 1014.3 - 0.0
31/12:00am 7.9 4.2 6.4 90 0.7 NW 15 19 8 10 1014.3 1014.3 0.0
 
Date/Time
WST
Temp
°C
App
Temp
°C
Dew
Point
Rel
Hum
%
Delta-T
°C
Wind Press
QNH
hPa
Press
MSL
hPa
Rain
since 9 am
mm
Dir
 
Spd
km/h
Gust
km/h
Spd
kts
Gust
kts
30/11:30pm 8.6 5.2 7.5 93 0.5 NW 15 20 8 11 1014.6 - 0.0
30/11:00pm 9.4 7.0 8.6 95 0.4 NNW 11 17 6 9 1014.6 - 0.0
30/10:30pm 9.1 5.9 8.3 95 0.4 NNW 15 17 8 9 1014.6 - 0.0
30/10:00pm 9.0 5.7 8.1 94 0.4 NNW 15 17 8 9 1014.9 - 0.0
30/09:30pm 9.7 7.0 8.8 94 0.4 NNW 13 15 7 8 1015.1 - 0.0
30/09:00pm 10.0 7.3 9.1 94 0.4 NNW 13 15 7 8 1015.2 1015.2 0.0
30/08:30pm 10.5 7.9 9.4 93 0.5 N 13 15 7 8 1015.4 - 0.0
30/08:00pm 10.6 8.0 9.5 93 0.6 N 13 13 7 7 1015.6 - 0.0
30/07:30pm 10.9 8.4 9.7 92 0.6 N 13 13 7 7 1015.7 - 0.0
30/07:00pm 11.4 10.1 9.8 90 0.8 NW 7 7 4 4 1015.9 - 0.0
30/06:30pm 11.4 10.0 9.5 88 1.0 W 7 7 4 4 1016.1 - 0.0
30/06:00pm 13.0 11.6 10.9 87 1.1 SW 9 11 5 6 1016.0 1016.0 0.0
30/05:30pm 13.6 11.8 10.9 84 1.4 WSW 11 13 6 7 1015.8 - 0.0
30/05:00pm 14.7 12.9 10.7 77 2.1 SW 11 15 6 8 1015.5 - 0.0
30/04:30pm 15.7 13.7 10.2 70 2.9 WSW 11 15 6 8 1015.2 - 0.0
30/04:00pm 16.9 14.6 10.5 66 3.4 WSW 13 17 7 9 1015.0 - 0.0
30/03:30pm 17.4 14.7 10.5 64 3.7 WSW 15 22 8 12 1015.2 - 0.0
30/03:00pm 18.1 15.6 11.0 63 3.8 WSW 15 22 8 12 1015.4 1015.4 0.0
30/02:30pm 18.4 15.0 10.5 60 4.2 SW 19 30 10 16 1015.4 - 0.0
30/02:00pm 19.0 15.5 10.3 57 4.7 SW 19 26 10 14 1015.4 - 0.0
30/01:30pm 22.0 18.1 8.5 42 7.1 W 19 28 10 15 1015.7 - 0.0
30/01:00pm 21.5 16.0 5.8 36 7.9 WNW 24 39 13 21 1016.0 - 0.0
30/12:30pm 21.6 16.2 6.3 37 7.7 W 24 43 13 23 1016.5 - 0.0
30/12:00pm 21.1 14.9 6.2 38 7.5 WNW 28 43 15 23 1017.1 1017.1 0.0
30/11:30am 20.6 16.3 7.9 44 6.6 WNW 20 35 11 19 1017.8 - 0.0
30/11:00am 20.1 16.1 8.4 47 6.1 WNW 19 26 10 14 1018.7 - 0.0
30/10:30am 18.8 14.7 8.5 51 5.3 NW 20 28 11 15 1019.4 - 0.0
30/10:00am 18.0 13.7 8.0 52 5.1 NW 20 32 11 17 1019.8 - 0.0
30/09:30am 17.5 14.3 8.4 55 4.7 NW 15 24 8 13 1020.1 - 0.0
30/09:00am 16.0 13.3 9.0 63 3.6 NW 13 20 7 11 1020.2 1020.2 0.0
30/08:30am 13.6 10.2 7.8 68 2.9 NW 15 20 8 11 1020.2 - 0.0
30/08:00am 11.5 8.4 7.2 75 2.1 NW 13 20 7 11 1020.3 - 0.0
30/07:30am 9.3 5.6 6.4 82 1.3 NW 15 20 8 11 1020.3 - 0.0
30/07:00am 7.2 3.3 5.2 87 0.9 NNW 15 20 8 11 1020.3 - 0.0
30/06:30am 6.4 2.0 4.7 89 0.7 NNW 17 20 9 11 1020.2 - 0.0
30/06:00am 6.2 1.8 4.5 89 0.7 NNW 17 20 9 11 1020.1 1020.1 0.0
30/05:30am 5.9 1.0 4.2 89 0.7 NNW 19 20 10 11 1020.0 - 0.0
30/05:00am 6.1 1.3 4.4 89 0.7 NNW 19 22 10 12 1019.8 - 0.0
30/04:30am 6.5 2.1 4.5 87 0.9 NNW 17 20 9 11 1019.8 - 0.0
30/04:00am 7.3 2.9 4.9 85 1.1 NW 17 20 9 11 1019.8 - 0.0
30/03:30am 7.7 3.0 5.3 85 1.1 NW 19 20 10 11 1019.9 - 0.0
30/03:00am 7.8 3.6 5.6 86 1.0 NW 17 20 9 11 1019.9 1019.9 0.0
30/02:30am 7.7 3.5 5.5 86 1.0 NNW 17 22 9 12 1020.1 - 0.0
30/02:00am 8.2 4.2 6.5 89 0.8 NW 17 20 9 11 1020.3 - 0.0
30/01:30am 8.0 4.4 6.6 91 0.6 NNW 15 19 8 10 1020.5 - 0.0
30/01:00am 8.3 4.7 6.9 91 0.6 NNW 15 19 8 10 1020.7 - 0.0
30/12:30am 8.7 5.2 7.2 90 0.7 NNW 15 17 8 9 1021.3 - 0.0
30/12:00am 9.4 6.1 8.0 91 0.7 N 15 17 8 9 1021.2 1021.2 0.0
 
Date/Time
WST
Temp
°C
App
Temp
°C
Dew
Point
Rel
Hum
%
Delta-T
°C
Wind Press
QNH
hPa
Press
MSL
hPa
Rain
since 9 am
mm
Dir
 
Spd
km/h
Gust
km/h
Spd
kts
Gust
kts
29/11:30pm 9.6 6.0 8.2 91 0.7 N 17 19 9 10 1021.3 - 0.0
29/11:00pm 9.7 6.1 8.5 92 0.6 N 17 19 9 10 1021.4 - 0.0
29/10:30pm 9.3 5.7 8.2 93 0.5 N 17 19 9 10 1021.6 - 0.0
29/10:00pm 9.1 5.4 8.0 93 0.5 N 17 20 9 11 1021.9 - 0.0
29/09:30pm 9.6 6.8 8.5 93 0.5 NNW 13 15 7 8 1022.0 - 0.0
29/09:00pm 9.9 7.1 8.7 92 0.6 NNW 13 15 7 8 1022.1 1022.1 0.0
29/08:30pm 10.4 8.2 9.2 92 0.6 NW 11 11 6 6 1022.0 - 0.0
29/08:00pm 10.6 8.7 9.2 91 0.7 WNW 9 11 5 6 1022.0 - 0.0
29/07:30pm 10.7 8.4 9.1 90 0.8 NW 11 11 6 6 1022.0 - 0.0
29/07:00pm 11.6 9.5 9.9 89 0.9 WNW 11 13 6 7 1021.9 - 0.0
29/06:30pm 11.8 9.8 10.0 89 0.9 WNW 11 11 6 6 1021.7 - 0.0
29/06:00pm 12.3 10.3 10.2 87 1.1 WNW 11 11 6 6 1021.3 1021.3 0.0
29/05:30pm 12.9 11.4 10.4 85 1.3 W 9 11 5 6 1021.0 - 0.0
29/05:00pm 14.2 12.9 11.2 82 1.6 W 9 11 5 6 1020.7 - 0.0
29/04:30pm 15.5 14.2 11.3 76 2.3 W 9 13 5 7 1020.6 - 0.0
29/04:00pm 16.6 15.0 11.7 73 2.7 WSW 11 17 6 9 1020.5 - 0.0
29/03:30pm 16.9 14.2 11.6 71 2.9 SW 17 24 9 13 1020.4 - 0.0
29/03:00pm 17.6 14.3 10.9 65 3.6 SW 19 26 10 14 1020.1 1020.1 0.0
29/02:30pm 17.9 14.2 10.3 61 4.1 SW 20 30 11 16 1019.9 - 0.0
29/02:00pm 17.9 13.9 10.5 62 4.0 SW 22 33 12 18 1019.8 - 0.0

Other Formats:

Comma delimited format used in spreadsheet applications
http://www.bom.gov.au/fwo/IDW60801/IDW60801.94644.axf

JavaScript Object Notation format (JSON) in row-major order
http://www.bom.gov.au/fwo/IDW60801/IDW60801.94644.json